Time;durP1;ratioP1;P1;durP2;ratioP2;P2;SDS_P1;SDS_P2;PMS_P1;PMS_P2;Temp;Humidity;BMP_temperature;BMP_pressure;BME280_temperature;BME280_humidity;BME280_pressure;Samples;Min_cycle;Max_cycle;Signal;HPM_P1;HPM_P2
2023/02/25 00:02:13;;;;;;;13.10;6.20;;;3.70;99.90;;;;;;5021342;28;20037;-81
2023/02/25 00:04:40;;;;;;;9.98;7.05;;;3.70;99.90;;;;;;5024902;28;20022;-79
2023/02/25 00:07:07;;;;;;;12.82;6.80;;;3.70;99.90;;;;;;5020473;28;20037;-83
2023/02/25 00:09:32;;;;;;;9.77;6.75;;;3.60;99.90;;;;;;5020493;28;20050;-82
2023/02/25 00:11:58;;;;;;;12.05;7.03;;;3.60;99.90;;;;;;5020008;28;20064;-78
2023/02/25 00:14:24;;;;;;;11.57;7.57;;;3.70;99.90;;;;;;5018749;28;20054;-84
2023/02/25 00:16:49;;;;;;;12.73;7.50;;;3.60;99.90;;;;;;5023919;28;20057;-75
2023/02/25 00:19:16;;;;;;;19.00;8.38;;;3.60;99.90;;;;;;5017616;28;20065;-80
2023/02/25 00:21:41;;;;;;;15.68;7.82;;;3.60;99.90;;;;;;5021785;28;20081;-79
2023/02/25 00:24:07;;;;;;;13.38;7.55;;;3.60;99.90;;;;;;5014623;28;20534;-82
2023/02/25 00:26:33;;;;;;;15.35;7.82;;;3.60;99.90;;;;;;5019654;28;20021;-84
2023/02/25 00:28:58;;;;;;;13.38;8.40;;;3.50;99.90;;;;;;5015960;28;20038;-79
2023/02/25 00:31:25;;;;;;;15.70;7.95;;;3.60;99.90;;;;;;5019691;28;20463;-82
2023/02/25 00:33:51;;;;;;;14.70;8.52;;;3.60;99.90;;;;;;5018009;28;20041;-77
2023/02/25 00:36:22;;;;;;;15.80;8.73;;;3.60;99.90;;;;;;5018715;28;20026;-83
2023/02/25 00:38:53;;;;;;;17.00;8.48;;;3.50;99.90;;;;;;5018232;28;20033;-80
2023/02/25 00:41:21;;;;;;;17.08;8.90;;;3.50;99.90;;;;;;5016454;28;20037;-80
2023/02/25 00:43:55;;;;;;;17.00;8.40;;;3.60;99.90;;;;;;5019472;28;20049;-83
2023/02/25 00:46:22;;;;;;;15.63;9.15;;;3.60;99.90;;;;;;5021526;28;20156;-83
2023/02/25 00:48:49;;;;;;;12.20;8.15;;;3.60;99.90;;;;;;5019328;28;20755;-83
2023/02/25 00:51:17;;;;;;;14.65;8.88;;;3.60;99.90;;;;;;5016928;28;20064;-85
2023/02/25 00:53:44;;;;;;;19.65;9.10;;;3.60;99.90;;;;;;5017892;28;20040;-85
2023/02/25 00:56:16;;;;;;;16.25;7.55;;;3.60;99.90;;;;;;5017460;28;20627;-85
2023/02/25 00:58:43;;;;;;;14.60;7.80;;;3.70;99.90;;;;;;5028177;28;20112;-84
2023/02/25 01:01:32;;;;;;;16.88;7.40;;;3.70;99.90;;;;;;5026573;28;20061;-84
2023/02/25 01:03:58;;;;;;;15.93;7.50;;;3.90;99.90;;;;;;5006336;28;20063;-83
2023/02/25 01:06:26;;;;;;;14.05;7.53;;;3.90;99.90;;;;;;5021017;28;20473;-85
2023/02/25 01:08:52;;;;;;;11.70;6.82;;;3.90;99.90;;;;;;5014044;28;20109;-78
2023/02/25 01:11:26;;;;;;;12.68;7.18;;;3.90;99.90;;;;;;5020711;28;20091;-84
2023/02/25 01:13:52;;;;;;;13.73;6.95;;;3.90;99.90;;;;;;5019352;28;20054;-77
2023/02/25 01:16:23;;;;;;;14.35;6.93;;;3.90;99.90;;;;;;5023338;28;20467;-84
2023/02/25 01:18:51;;;;;;;9.02;5.63;;;3.90;99.90;;;;;;5018521;28;20034;-83
2023/02/25 01:21:20;;;;;;;9.80;5.53;;;4.10;99.90;;;;;;5023602;28;20116;-83
2023/02/25 01:23:47;;;;;;;9.07;5.90;;;4.10;99.90;;;;;;5016454;28;20104;-83
2023/02/25 01:26:14;;;;;;;14.60;5.22;;;4.10;99.90;;;;;;5018837;28;20041;-84
2023/02/25 01:28:39;;;;;;;12.00;5.65;;;4.10;99.90;;;;;;5029667;28;20501;-84
2023/02/25 01:31:07;;;;;;;8.48;5.20;;;4.20;99.90;;;;;;5008318;28;20017;-84
2023/02/25 01:33:37;;;;;;;11.15;6.07;;;4.10;99.90;;;;;;5026513;28;20038;-84
2023/02/25 01:36:05;;;;;;;14.32;5.75;;;4.10;99.90;;;;;;5021303;28;20149;-84
2023/02/25 01:38:32;;;;;;;8.75;5.07;;;4.00;99.90;;;;;;5020593;28;20043;-84
2023/02/25 01:40:59;;;;;;;7.07;4.53;;;4.10;99.90;;;;;;5006913;28;20071;-83
2023/02/25 01:43:27;;;;;;;9.90;5.53;;;4.00;99.90;;;;;;5017387;28;20057;-85
2023/02/25 01:45:53;;;;;;;9.63;5.55;;;4.10;99.90;;;;;;5021345;28;20029;-78
2023/02/25 01:48:22;;;;;;;8.60;4.68;;;4.00;99.90;;;;;;5028115;28;20568;-84
2023/02/25 01:51:01;;;;;;;7.82;5.03;;;4.00;99.90;;;;;;5018924;28;20038;-84
2023/02/25 01:53:32;;;;;;;9.52;5.43;;;4.00;99.90;;;;;;5024971;28;20462;-83
2023/02/25 01:55:58;;;;;;;11.88;5.38;;;3.90;99.90;;;;;;5015093;28;20052;-82
2023/02/25 01:58:26;;;;;;;6.40;4.00;;;3.90;99.90;;;;;;5020947;28;20034;-81
2023/02/25 02:00:55;;;;;;;8.38;4.18;;;3.90;99.90;;;;;;5011820;28;20026;-77
2023/02/25 02:03:31;;;;;;;7.22;4.03;;;4.00;99.90;;;;;;5020398;28;20051;-84
2023/02/25 02:06:18;;;;;;;6.75;4.30;;;3.90;99.90;;;;;;5017040;28;20370;-84
2023/02/25 02:08:45;;;;;;;6.97;3.95;;;3.90;99.90;;;;;;5023013;28;20029;-85
2023/02/25 02:11:11;;;;;;;9.10;4.00;;;3.90;99.90;;;;;;5019525;28;20021;-84
2023/02/25 02:13:41;;;;;;;9.15;3.97;;;3.90;99.90;;;;;;5025576;28;20061;-84
2023/02/25 02:16:24;;;;;;;;;;;3.90;99.90;;;;;;5020966;28;20052;-83
2023/02/25 02:18:57;;;;;;;6.95;3.53;;;3.90;99.90;;;;;;5018933;28;19921;-76
2023/02/25 02:21:48;;;;;;;7.40;3.45;;;3.90;99.90;;;;;;5003630;28;20034;-83
2023/02/25 02:24:28;;;;;;;6.45;3.40;;;4.10;99.90;;;;;;5014362;28;20704;-84
2023/02/25 02:27:06;;;;;;;10.43;3.72;;;4.00;99.90;;;;;;5021186;28;20106;-80
2023/02/25 02:29:34;;;;;;;6.80;3.17;;;3.90;99.90;;;;;;5030015;28;20038;-84
2023/02/25 02:32:28;;;;;;;5.35;3.03;;;3.90;99.90;;;;;;5018240;28;20029;-84
2023/02/25 02:35:13;;;;;;;5.78;3.42;;;3.80;99.90;;;;;;5011002;28;20069;-79
2023/02/25 02:37:55;;;;;;;8.07;3.63;;;3.80;99.90;;;;;;5018719;28;20037;-83
2023/02/25 02:41:00;;;;;;;9.98;3.50;;;3.80;99.90;;;;;;5013484;28;20466;-80
2023/02/25 02:43:38;;;;;;;9.02;3.88;;;3.90;99.90;;;;;;5015319;28;20487;-84
2023/02/25 02:46:17;;;;;;;6.65;4.05;;;3.80;99.90;;;;;;5013443;28;20041;-83
2023/02/25 02:48:52;;;;;;;10.60;4.35;;;3.80;99.90;;;;;;5013464;28;20038;-82
2023/02/25 02:51:25;;;;;;;7.68;3.85;;;3.90;99.90;;;;;;5014823;28;20025;-83
2023/02/25 02:53:57;;;;;;;8.65;3.83;;;3.80;99.90;;;;;;5028117;28;20046;-76
2023/02/25 02:56:25;;;;;;;6.72;3.63;;;3.80;99.90;;;;;;5017810;28;20052;-82
2023/02/25 02:59:10;;;;;;;10.23;4.07;;;3.80;99.90;;;;;;5011151;28;20112;-77
2023/02/25 03:01:44;;;;;;;8.98;3.67;;;3.80;99.90;;;;;;5002269;28;20466;-83
2023/02/25 03:04:15;;;;;;;6.88;3.50;;;3.90;99.90;;;;;;5021848;28;20037;-84
2023/02/25 03:06:50;;;;;;;7.80;3.58;;;3.90;99.90;;;;;;5016425;28;20033;-83
2023/02/25 03:09:39;;;;;;;7.15;2.72;;;4.00;99.90;;;;;;5013656;28;20038;-84
2023/02/25 03:12:05;;;;;;;8.25;3.40;;;3.90;99.90;;;;;;5014159;28;20065;-84
2023/02/25 03:14:31;;;;;;;6.55;3.72;;;3.90;99.90;;;;;;5017881;28;20147;-83
2023/02/25 03:17:15;;;;;;;12.07;3.85;;;3.80;99.90;;;;;;5017275;28;20040;-83
2023/02/25 03:19:50;;;;;;;7.50;3.35;;;3.90;99.90;;;;;;5020218;28;20537;-82
2023/02/25 03:22:21;;;;;;;7.07;3.13;;;3.90;99.90;;;;;;5017529;28;20037;-83
2023/02/25 03:24:59;;;;;;;6.57;3.40;;;3.80;99.90;;;;;;5016397;28;20032;-81
2023/02/25 03:27:33;;;;;;;8.27;3.28;;;3.80;99.90;;;;;;5027144;28;20107;-82
2023/02/25 03:30:13;;;;;;;8.85;3.53;;;3.80;99.90;;;;;;5016151;28;20117;-82
2023/02/25 03:32:44;;;;;;;6.85;2.97;;;3.90;99.90;;;;;;5017385;28;20037;-82
2023/02/25 03:35:11;;;;;;;5.72;2.72;;;4.00;99.90;;;;;;5017052;28;20061;-82
2023/02/25 03:37:40;;;;;;;5.88;3.45;;;4.00;99.90;;;;;;5019684;28;20108;-83
2023/02/25 03:40:12;;;;;;;7.80;2.60;;;3.90;99.90;;;;;;5021706;28;20061;-82
2023/02/25 03:42:53;;;;;;;6.53;2.50;;;3.90;99.90;;;;;;5017545;28;20040;-83
2023/02/25 03:45:20;;;;;;;7.13;3.13;;;3.90;99.90;;;;;;5014090;28;20044;-82
2023/02/25 03:47:46;;;;;;;8.63;3.05;;;3.80;99.90;;;;;;5016194;28;20501;-83
2023/02/25 03:50:24;;;;;;;7.97;2.70;;;3.80;99.90;;;;;;5018865;28;20030;-82
2023/02/25 03:52:50;;;;;;;6.38;2.40;;;3.70;99.90;;;;;;5012583;28;20030;-75
2023/02/25 03:55:17;;;;;;;7.35;2.20;;;3.60;99.90;;;;;;5015027;28;20353;-83
2023/02/25 03:57:46;;;;;;;6.15;2.58;;;3.50;99.90;;;;;;5017376;28;20038;-83
2023/02/25 04:00:17;;;;;;;7.97;2.17;;;3.50;99.90;;;;;;5019448;28;20041;-82
2023/02/25 04:02:45;;;;;;;5.45;2.25;;;3.50;99.90;;;;;;5019639;28;20053;-82
2023/02/25 04:05:12;;;;;;;5.82;2.05;;;3.50;99.90;;;;;;5015507;28;20105;-80
2023/02/25 04:07:38;;;;;;;7.40;1.55;;;3.50;99.90;;;;;;5023855;28;20026;-82
2023/02/25 04:10:06;;;;;;;9.18;1.90;;;3.50;99.90;;;;;;5015752;28;20034;-80
2023/02/25 04:12:32;;;;;;;4.65;1.60;;;3.50;99.90;;;;;;5010750;28;20025;-81
2023/02/25 04:14:58;;;;;;;4.78;1.80;;;3.70;99.90;;;;;;5016655;28;20124;-82
2023/02/25 04:17:23;;;;;;;6.57;1.77;;;3.60;99.90;;;;;;5022941;28;20092;-82
2023/02/25 04:19:49;;;;;;;8.25;1.73;;;3.60;99.90;;;;;;5020387;28;20471;-78
2023/02/25 04:22:14;;;;;;;6.50;1.75;;;3.60;99.90;;;;;;5015237;28;20030;-82
2023/02/25 04:24:40;;;;;;;11.00;1.88;;;3.60;99.90;;;;;;5023598;28;20467;-82
2023/02/25 04:27:06;;;;;;;6.25;1.40;;;3.50;99.90;;;;;;5021397;28;20030;-78
2023/02/25 04:29:31;;;;;;;5.53;1.25;;;3.50;99.90;;;;;;5022729;28;20029;-82
2023/02/25 04:31:57;;;;;;;8.73;1.45;;;3.40;99.90;;;;;;5016149;28;20478;-81
2023/02/25 04:34:23;;;;;;;6.45;1.15;;;3.50;99.90;;;;;;5020023;28;20041;-82
2023/02/25 04:36:49;;;;;;;7.13;1.48;;;3.40;99.90;;;;;;5023202;28;20105;-81
2023/02/25 04:39:17;;;;;;;5.68;1.73;;;3.40;99.90;;;;;;4997546;28;20545;-81
2023/02/25 04:41:43;;;;;;;10.55;1.50;;;3.40;99.90;;;;;;5013851;28;20033;-81
2023/02/25 04:44:09;;;;;;;5.88;1.20;;;3.50;99.90;;;;;;5020312;28;20057;-80
2023/02/25 04:46:38;;;;;;;4.88;1.48;;;3.40;99.90;;;;;;5018281;28;20407;-80
2023/02/25 04:49:05;;;;;;;6.18;1.13;;;3.50;99.90;;;;;;5017512;28;20038;-80
2023/02/25 04:51:31;;;;;;;7.72;1.40;;;3.50;99.90;;;;;;5016706;28;20077;-81
2023/02/25 04:53:57;;;;;;;6.15;1.20;;;3.50;99.90;;;;;;5021219;28;20446;-78
2023/02/25 04:56:23;;;;;;;4.45;1.05;;;3.50;99.90;;;;;;5018423;28;20065;-81
2023/02/25 04:58:48;;;;;;;5.45;1.40;;;3.60;99.90;;;;;;5009347;28;20091;-81
2023/02/25 05:01:14;;;;;;;6.60;1.45;;;3.60;99.90;;;;;;5024348;28;20467;-81
2023/02/25 05:03:40;;;;;;;8.27;1.48;;;3.60;99.90;;;;;;5018887;28;20030;-80
2023/02/25 05:06:07;;;;;;;8.20;1.63;;;3.50;99.90;;;;;;5014672;28;20030;-79
2023/02/25 05:08:34;;;;;;;6.80;1.20;;;3.50;99.90;;;;;;5025681;28;20025;-81
2023/02/25 05:11:01;;;;;;;3.38;1.08;;;3.60;99.90;;;;;;5023546;28;20022;-80
2023/02/25 05:13:27;;;;;;;5.03;1.70;;;3.60;99.90;;;;;;5024509;28;20510;-79
2023/02/25 05:16:06;;;;;;;5.35;1.08;;;3.50;99.90;;;;;;5014900;28;20030;-75
2023/02/25 05:18:35;;;;;;;3.72;1.55;;;3.40;99.90;;;;;;5019504;28;20025;-80
2023/02/25 05:21:00;;;;;;;6.97;1.42;;;3.30;99.90;;;;;;5013971;28;20040;-79
2023/02/25 05:23:26;;;;;;;3.67;0.90;;;3.40;99.90;;;;;;5022648;28;20041;-79
2023/02/25 05:25:52;;;;;;;7.07;1.20;;;3.50;99.90;;;;;;5013924;28;20379;-76
2023/02/25 05:28:18;;;;;;;8.10;1.45;;;3.50;99.90;;;;;;5016147;28;20509;-77
2023/02/25 05:30:44;;;;;;;9.70;1.20;;;3.50;99.90;;;;;;5018617;28;20026;-79
2023/02/25 05:33:09;;;;;;;4.85;1.05;;;3.50;99.90;;;;;;5016649;28;20044;-78
2023/02/25 05:35:39;;;;;;;7.18;1.30;;;3.50;99.90;;;;;;5022703;28;20474;-78
2023/02/25 05:38:05;;;;;;;7.07;1.42;;;3.60;99.90;;;;;;5026593;28;20037;-78
2023/02/25 05:40:31;;;;;;;4.35;1.13;;;3.50;99.90;;;;;;5018170;28;20109;-78
2023/02/25 05:42:56;;;;;;;5.70;0.93;;;3.60;99.90;;;;;;5020913;28;20099;-78
2023/02/25 05:45:22;;;;;;;4.88;0.70;;;3.60;99.90;;;;;;5024286;28;20447;-79
2023/02/25 05:47:47;;;;;;;5.97;0.55;;;3.60;99.90;;;;;;5016615;28;20030;-79
2023/02/25 05:50:13;;;;;;;7.88;1.52;;;3.60;99.90;;;;;;5013048;28;20046;-78
2023/02/25 05:52:39;;;;;;;4.90;1.15;;;3.50;99.90;;;;;;5026982;28;20481;-77
2023/02/25 05:55:07;;;;;;;4.40;0.75;;;3.40;99.90;;;;;;5011677;28;20391;-78
2023/02/25 05:57:33;;;;;;;7.10;1.20;;;3.40;99.90;;;;;;5017729;28;20113;-78
2023/02/25 06:00:00;;;;;;;6.85;1.02;;;3.50;99.90;;;;;;5018588;28;20172;-78
2023/02/25 06:02:26;;;;;;;5.35;0.80;;;3.60;99.90;;;;;;5019247;28;20028;-78
2023/02/25 06:04:53;;;;;;;8.13;1.20;;;3.60;99.90;;;;;;5014380;28;20116;-75
2023/02/25 06:07:18;;;;;;;8.70;0.68;;;3.60;99.90;;;;;;5024163;28;20034;-79
2023/02/25 06:09:44;;;;;;;4.05;0.88;;;3.50;99.90;;;;;;5021180;28;20037;-78
2023/02/25 06:12:10;;;;;;;5.70;1.00;;;3.50;99.90;;;;;;5021534;28;20029;-77
2023/02/25 06:14:35;;;;;;;5.88;0.95;;;3.40;99.90;;;;;;5030616;28;20054;-79
2023/02/25 06:17:01;;;;;;;4.47;0.60;;;3.40;99.90;;;;;;5011896;28;20026;-79
2023/02/25 06:19:27;;;;;;;6.50;0.52;;;3.40;99.90;;;;;;5028856;28;20030;-77
2023/02/25 06:21:54;;;;;;;5.88;0.90;;;3.40;99.90;;;;;;5022803;28;20096;-74
2023/02/25 06:24:23;;;;;;;4.15;0.68;;;3.50;99.90;;;;;;5016310;28;20034;-77
2023/02/25 06:26:49;;;;;;;4.07;1.30;;;3.40;99.90;;;;;;5014235;28;20042;-78
2023/02/25 06:29:15;;;;;;;4.88;0.90;;;3.40;99.90;;;;;;5020345;28;20842;-81
2023/02/25 06:31:40;;;;;;;8.25;1.02;;;3.40;99.90;;;;;;5022888;28;20037;-78
2023/02/25 06:34:06;;;;;;;5.50;1.00;;;3.40;99.90;;;;;;5023660;28;20044;-77
2023/02/25 06:36:32;;;;;;;5.63;1.02;;;3.40;99.90;;;;;;5015830;28;20038;-78
2023/02/25 06:38:58;;;;;;;8.00;0.90;;;3.40;99.90;;;;;;5007529;28;20029;-78
2023/02/25 06:41:24;;;;;;;6.78;0.88;;;3.50;99.90;;;;;;5016232;28;20470;-79
2023/02/25 06:43:51;;;;;;;5.50;0.80;;;3.50;99.90;;;;;;5002801;28;20078;-74
2023/02/25 06:46:19;;;;;;;6.35;1.10;;;3.50;99.90;;;;;;5025494;28;20037;-79
2023/02/25 06:48:45;;;;;;;3.72;0.80;;;3.50;99.90;;;;;;5017224;28;20088;-77
2023/02/25 06:51:11;;;;;;;7.18;1.38;;;3.50;99.90;;;;;;5015264;28;20486;-78
2023/02/25 06:53:38;;;;;;;5.28;1.27;;;3.50;99.90;;;;;;5011255;28;20034;-78
2023/02/25 06:56:05;;;;;;;5.75;1.33;;;3.40;99.90;;;;;;5017787;28;20386;-78
2023/02/25 06:58:31;;;;;;;7.10;1.60;;;3.50;99.90;;;;;;5011579;28;20121;-80
2023/02/25 07:00:58;;;;;;;4.75;1.23;;;3.50;99.90;;;;;;5020616;28;20109;-80
2023/02/25 07:03:24;;;;;;;4.50;1.25;;;3.50;99.90;;;;;;5015997;28;20038;-79
2023/02/25 07:05:49;;;;;;;10.55;1.85;;;3.60;99.90;;;;;;5017667;28;20026;-73
2023/02/25 07:08:15;;;;;;;5.18;1.13;;;3.70;99.90;;;;;;5014666;28;20029;-78
2023/02/25 07:10:41;;;;;;;4.95;1.15;;;3.70;99.90;;;;;;5019128;28;20670;-77
2023/02/25 07:13:08;;;;;;;4.40;1.00;;;3.70;99.90;;;;;;5012655;28;20100;-76
2023/02/25 07:15:34;;;;;;;3.67;0.98;;;3.80;99.90;;;;;;5011847;28;20056;-79
2023/02/25 07:18:00;;;;;;;7.57;1.35;;;3.80;99.90;;;;;;5015689;28;20545;-77
2023/02/25 07:20:26;;;;;;;7.32;1.33;;;3.80;99.90;;;;;;5022255;28;20042;-78
2023/02/25 07:22:51;;;;;;;5.30;1.00;;;3.90;99.90;;;;;;5015318;28;20049;-75
2023/02/25 07:25:17;;;;;;;3.33;1.02;;;3.90;99.90;;;;;;5016490;28;20086;-75
2023/02/25 07:27:43;;;;;;;3.50;0.88;;;4.00;99.90;;;;;;5013044;28;20040;-79
2023/02/25 07:30:11;;;;;;;3.65;1.00;;;4.10;99.90;;;;;;5013010;28;20025;-81
2023/02/25 07:32:38;;;;;;;4.47;1.20;;;4.20;99.90;;;;;;5020347;28;20029;-81
2023/02/25 07:35:04;;;;;;;3.28;0.90;;;4.30;99.90;;;;;;5010472;28;20034;-78
2023/02/25 07:37:30;;;;;;;4.07;1.02;;;4.30;99.90;;;;;;5023324;28;20031;-78
2023/02/25 07:39:58;;;;;;;7.32;1.13;;;4.30;99.90;;;;;;5014406;28;20032;-77
2023/02/25 07:42:25;;;;;;;2.92;1.50;;;4.30;99.90;;;;;;5017297;28;20041;-83
2023/02/25 07:44:51;;;;;;;5.25;1.08;;;4.40;99.90;;;;;;5017282;28;20095;-73
2023/02/25 07:47:17;;;;;;;7.47;0.80;;;4.40;99.90;;;;;;5020602;28;20367;-79
2023/02/25 07:49:42;;;;;;;5.03;2.15;;;4.50;99.90;;;;;;5017993;28;20481;-77
2023/02/25 07:52:08;;;;;;;6.32;1.30;;;4.60;99.90;;;;;;5018500;28;20033;-76
2023/02/25 07:54:33;;;;;;;5.32;1.08;;;4.70;99.90;;;;;;5014826;28;20127;-74
2023/02/25 07:56:59;;;;;;;7.18;1.17;;;4.80;99.90;;;;;;5022938;28;20037;-73
2023/02/25 07:59:24;;;;;;;7.50;0.90;;;4.80;99.90;;;;;;5022363;28;20379;-77
2023/02/25 08:01:50;;;;;;;2.05;0.63;;;4.70;99.90;;;;;;5019318;28;20030;-73
2023/02/25 08:04:16;;;;;;;3.75;0.98;;;4.70;99.90;;;;;;5013668;28;20039;-76
2023/02/25 08:06:41;;;;;;;5.38;1.08;;;4.70;99.90;;;;;;5017966;28;20493;-77
2023/02/25 08:09:11;;;;;;;5.18;1.08;;;4.70;99.90;;;;;;5014148;28;20049;-77
2023/02/25 08:11:36;;;;;;;2.77;0.90;;;4.70;99.90;;;;;;5024601;28;20037;-76
2023/02/25 08:14:03;;;;;;;4.80;1.00;;;4.80;99.90;;;;;;5014579;28;20049;-77
2023/02/25 08:16:29;;;;;;;3.95;1.05;;;4.80;99.90;;;;;;5016714;28;20025;-77
2023/02/25 08:18:54;;;;;;;13.23;1.25;;;4.90;99.90;;;;;;5022431;28;20043;-73
2023/02/25 08:21:22;;;;;;;4.93;0.85;;;4.90;99.90;;;;;;5017657;28;20060;-77
2023/02/25 08:23:48;;;;;;;5.90;1.35;;;4.90;99.90;;;;;;5023579;28;20440;-77
2023/02/25 08:26:16;;;;;;;5.72;0.88;;;4.90;99.90;;;;;;5022493;28;20129;-77
2023/02/25 08:28:42;;;;;;;4.05;0.70;;;4.90;99.90;;;;;;5020104;28;20038;-78
2023/02/25 08:31:10;;;;;;;4.30;1.13;;;4.80;99.90;;;;;;5020216;28;20422;-80
2023/02/25 08:33:38;;;;;;;3.92;0.75;;;4.90;99.90;;;;;;5014258;28;20041;-80
2023/02/25 08:36:12;;;;;;;5.43;0.80;;;5.00;99.90;;;;;;5018789;28;20049;-77
2023/02/25 08:38:38;;;;;;;5.70;1.17;;;5.00;99.90;;;;;;5014789;28;20044;-78
2023/02/25 08:41:04;;;;;;;6.78;1.13;;;5.10;99.90;;;;;;5017878;28;20455;-79
2023/02/25 08:43:31;;;;;;;4.93;1.10;;;5.10;99.90;;;;;;5014700;28;20049;-79
2023/02/25 08:45:56;;;;;;;5.03;0.98;;;5.10;99.90;;;;;;5018231;28;20101;-76
2023/02/25 08:48:22;;;;;;;5.88;1.40;;;5.10;99.90;;;;;;5022367;28;20232;-78
2023/02/25 08:50:47;;;;;;;11.32;1.38;;;5.10;99.90;;;;;;5014953;28;20044;-78
2023/02/25 08:53:13;;;;;;;4.55;1.17;;;5.10;99.90;;;;;;5020608;28;20042;-77
2023/02/25 08:55:39;;;;;;;6.57;1.10;;;5.10;99.90;;;;;;5018887;28;20110;-75
2023/02/25 08:58:05;;;;;;;5.30;1.02;;;5.00;99.90;;;;;;5013653;28;20041;-79
2023/02/25 09:00:31;;;;;;;6.53;1.38;;;4.90;99.90;;;;;;5014751;28;20034;-77
2023/02/25 09:02:57;;;;;;;4.85;1.15;;;4.80;99.90;;;;;;5021955;28;20667;-75
2023/02/25 09:05:23;;;;;;;10.05;1.80;;;4.80;99.90;;;;;;5023488;28;20390;-76
2023/02/25 09:07:50;;;;;;;3.65;0.90;;;4.80;99.90;;;;;;5015014;28;20029;-76
2023/02/25 09:10:16;;;;;;;5.18;1.00;;;4.90;99.90;;;;;;5011537;28;20073;-76
2023/02/25 09:12:43;;;;;;;7.18;1.70;;;5.00;99.90;;;;;;5021081;28;20060;-79
2023/02/25 09:15:09;;;;;;;7.30;0.90;;;5.20;99.90;;;;;;4997442;28;20068;-77
2023/02/25 09:17:35;;;;;;;3.33;0.60;;;5.30;99.90;;;;;;5011619;28;20057;-78
2023/02/25 09:20:05;;;;;;;5.45;0.85;;;5.40;99.90;;;;;;5017178;28;20061;-77
2023/02/25 09:22:31;;;;;;;6.55;1.10;;;5.60;99.90;;;;;;5028881;28;20397;-77
2023/02/25 09:24:57;;;;;;;5.60;1.10;;;5.70;99.90;;;;;;5015638;28;20471;-76
2023/02/25 09:27:23;;;;;;;15.40;1.55;;;5.80;99.90;;;;;;5019944;28;20143;-81
2023/02/25 09:29:48;;;;;;;3.83;0.85;;;5.80;99.90;;;;;;5023791;28;20022;-81
2023/02/25 09:32:20;;;;;;;3.70;1.00;;;5.80;99.90;;;;;;5011882;28;20036;-82
2023/02/25 09:34:49;;;;;;;3.83;1.02;;;5.80;99.90;;;;;;5021721;28;20030;-82
2023/02/25 09:37:18;;;;;;;2.57;0.83;;;5.80;99.90;;;;;;5019392;28;20034;-81
2023/02/25 09:39:44;;;;;;;5.80;1.00;;;5.70;99.90;;;;;;5023561;28;20335;-84
2023/02/25 09:42:15;;;;;;;4.50;0.88;;;5.80;99.90;;;;;;5016037;28;20057;-83
2023/02/25 09:44:44;;;;;;;1.75;0.80;;;5.80;99.90;;;;;;5021179;28;20047;-86
2023/02/25 09:47:27;;;;;;;0.98;0.60;;;5.90;99.70;;;;;;5016861;28;20194;-86
2023/02/25 09:50:01;;;;;;;2.50;0.30;;;6.10;99.00;;;;;;5007293;28;20054;-76
2023/02/25 09:52:35;;;;;;;1.95;0.30;;;6.50;97.60;;;;;;5024347;28;20084;-83
2023/02/25 09:55:14;;;;;;;1.15;0.47;;;6.90;95.60;;;;;;5017339;28;20045;-90
2023/02/25 09:57:40;;;;;;;4.30;0.55;;;6.70;95.00;;;;;;5026562;28;20462;-79
2023/02/25 10:00:20;;;;;;;2.92;0.45;;;6.80;95.70;;;;;;5022281;28;20450;-80
2023/02/25 10:03:23;;;;;;;2.00;0.30;;;6.80;94.60;;;;;;5018897;28;20036;-83
2023/02/25 10:06:14;;;;;;;4.03;0.57;;;6.90;95.00;;;;;;4976237;28;20048;-79
2023/02/25 10:08:56;;;;;;;1.98;0.55;;;6.90;95.00;;;;;;5018821;28;20649;-86
2023/02/25 10:11:52;;;;;;;2.08;0.47;;;6.90;95.20;;;;;;5012277;28;20040;-77
2023/02/25 10:14:47;;;;;;;4.00;0.70;;;7.00;94.50;;;;;;5033122;28;20049;-83
2023/02/25 10:17:43;;;;;;;3.33;0.68;;;7.00;94.50;;;;;;5025300;28;20119;-82
2023/02/25 10:20:29;;;;;;;3.00;1.10;;;7.00;94.50;;;;;;5011546;28;20160;-87
2023/02/25 10:22:55;;;;;;;3.17;0.73;;;7.00;95.10;;;;;;5021173;28;20043;-82
2023/02/25 10:25:31;;;;;;;6.22;0.52;;;7.00;94.50;;;;;;5014578;28;20113;-80
2023/02/25 10:28:05;;;;;;;3.00;0.50;;;7.10;94.40;;;;;;5018937;28;20025;-86
2023/02/25 10:30:51;;;;;;;1.35;0.30;;;7.10;94.30;;;;;;5016200;28;20034;-84
2023/02/25 10:33:25;;;;;;;1.33;0.50;;;7.10;94.50;;;;;;5018579;28;20466;-82
2023/02/25 10:36:05;;;;;;;1.80;0.85;;;7.00;94.40;;;;;;5013858;28;20049;-74
2023/02/25 10:38:40;;;;;;;0.93;0.32;;;7.00;94.10;;;;;;5014271;28;20038;-78
2023/02/25 10:41:07;;;;;;;1.65;0.30;;;6.90;94.10;;;;;;5026952;28;20501;-83
2023/02/25 10:43:34;;;;;;;3.42;1.52;;;6.70;94.60;;;;;;5017504;28;20084;-83
2023/02/25 10:46:08;;;;;;;2.58;0.43;;;6.70;94.70;;;;;;5013778;28;20060;-85
2023/02/25 10:48:34;;;;;;;4.93;0.73;;;6.70;95.10;;;;;;5019509;28;20021;-78
2023/02/25 10:51:13;;;;;;;3.72;0.60;;;6.70;94.60;;;;;;5019911;28;20410;-82
2023/02/25 10:53:59;;;;;;;1.65;0.35;;;6.40;94.90;;;;;;5019095;28;20128;-85
2023/02/25 10:56:30;;;;;;;5.10;0.70;;;6.30;94.80;;;;;;5016139;28;20067;-82
2023/02/25 10:59:03;;;;;;;2.88;0.55;;;6.40;94.70;;;;;;5017398;28;20028;-74
2023/02/25 11:01:41;;;;;;;4.55;0.63;;;6.20;95.00;;;;;;5014815;28;20529;-83
2023/02/25 11:04:12;;;;;;;2.40;0.57;;;6.20;96.20;;;;;;5017220;28;20065;-81
2023/02/25 11:06:40;;;;;;;2.15;0.90;;;6.30;94.70;;;;;;5026387;28;20036;-81
2023/02/25 11:09:29;;;;;;;3.03;0.90;;;6.40;95.40;;;;;;5021548;28;20407;-83
2023/02/25 11:12:10;;;;;;;4.43;1.00;;;6.40;95.60;;;;;;5014939;28;20036;-77
2023/02/25 11:14:37;;;;;;;2.17;0.60;;;6.40;95.00;;;;;;5032533;28;20064;-87
2023/02/25 11:17:19;;;;;;;2.20;0.30;;;6.40;94.50;;;;;;5020224;28;20034;-82
2023/02/25 11:19:54;;;;;;;2.58;0.68;;;6.50;95.20;;;;;;5022029;28;20060;-82
2023/02/25 11:22:25;;;;;;;2.78;0.50;;;6.70;94.70;;;;;;5018413;28;20037;-82
2023/02/25 11:24:58;;;;;;;2.70;0.77;;;6.90;94.80;;;;;;5026560;28;20048;-78
2023/02/25 11:27:37;;;;;;;3.00;0.50;;;7.20;94.80;;;;;;5024383;28;20029;-85
2023/02/25 11:30:11;;;;;;;4.75;0.77;;;7.40;95.00;;;;;;5017974;28;20112;-84
2023/02/25 11:32:48;;;;;;;2.20;0.70;;;7.50;93.80;;;;;;5015696;28;20033;-76
2023/02/25 11:35:22;;;;;;;2.00;0.40;;;7.50;95.00;;;;;;5025618;28;20036;-86
2023/02/25 11:37:48;;;;;;;2.95;0.80;;;7.40;94.30;;;;;;5001616;28;20029;-84
2023/02/25 11:40:40;;;;;;;4.13;0.90;;;7.20;95.50;;;;;;5032590;28;20041;-83
2023/02/25 11:43:05;;;;;;;7.80;2.30;;;7.00;95.50;;;;;;5018472;28;20117;-81
2023/02/25 11:45:52;;;;;;;4.05;1.25;;;6.60;96.60;;;;;;5021652;28;20100;-83
2023/02/25 11:48:23;;;;;;;3.42;0.90;;;6.40;97.00;;;;;;5025914;28;20034;-78
2023/02/25 11:51:12;;;;;;;3.92;1.30;;;6.40;97.20;;;;;;5029524;28;20076;-76
2023/02/25 11:54:03;;;;;;;3.97;1.08;;;6.40;97.80;;;;;;5009421;28;20045;-78
2023/02/25 11:56:38;;;;;;;6.32;1.02;;;6.50;98.40;;;;;;5020711;28;20026;-80
2023/02/25 11:59:29;;;;;;;5.55;1.08;;;6.70;97.50;;;;;;5018285;28;20030;-77
2023/02/25 12:02:10;;;;;;;2.35;0.63;;;7.00;96.70;;;;;;5023817;28;20029;-75
2023/02/25 12:04:38;;;;;;;2.10;0.90;;;7.00;95.90;;;;;;5029090;28;20034;-77
2023/02/25 12:07:14;;;;;;;3.17;1.00;;;6.90;95.80;;;;;;5028953;28;20391;-77
2023/02/25 12:10:06;;;;;;;2.63;0.63;;;6.80;96.50;;;;;;5015603;28;20041;-80
2023/02/25 12:12:52;;;;;;;4.53;0.77;;;6.90;96.50;;;;;;5023432;28;20386;-80
2023/02/25 12:15:22;;;;;;;1.95;0.80;;;6.90;96.30;;;;;;5023240;28;20088;-78
2023/02/25 12:17:57;;;;;;;2.83;0.65;;;7.00;96.10;;;;;;5022431;28;20471;-75
2023/02/25 12:20:37;;;;;;;3.40;0.52;;;7.10;96.50;;;;;;5012302;28;20050;-82
2023/02/25 12:23:36;;;;;;;3.08;0.80;;;7.00;96.20;;;;;;5022318;28;20557;-78
2023/02/25 12:27:01;;;;;;;2.42;0.77;;;6.90;96.30;;;;;;5020897;28;20148;-76
2023/02/25 12:29:35;;;;;;;1.52;0.70;;;6.80;96.60;;;;;;4936573;29;20047;-76
2023/02/25 12:32:07;;;;;;;2.80;1.30;;;6.60;97.00;;;;;;4941750;29;20035;-75
2023/02/25 12:34:56;;;;;;;4.95;1.27;;;6.40;97.40;;;;;;5003305;28;20053;-75
2023/02/25 12:37:33;;;;;;;6.32;1.00;;;6.30;97.90;;;;;;5015285;28;20021;-75
2023/02/25 12:40:20;;;;;;;4.38;1.02;;;6.20;98.60;;;;;;5012191;28;20463;-77
2023/02/25 12:43:17;;;;;;;2.80;0.98;;;6.20;99.20;;;;;;5022121;28;20355;-75
2023/02/25 12:46:14;;;;;;;2.55;1.00;;;6.00;99.00;;;;;;5022561;28;20030;-75
2023/02/25 12:48:54;;;;;;;5.70;0.93;;;5.90;99.70;;;;;;5024466;28;20095;-75
2023/02/25 12:51:47;;;;;;;3.67;1.10;;;5.80;99.90;;;;;;5020140;28;20084;-75
2023/02/25 12:54:33;;;;;;;4.95;1.67;;;5.70;99.90;;;;;;5018456;28;20867;-76
2023/02/25 12:57:12;;;;;;;5.78;1.42;;;5.60;99.90;;;;;;5011287;28;20034;-73
2023/02/25 13:00:25;;;;;;;6.20;1.55;;;5.40;99.90;;;;;;5023001;28;20087;-75
2023/02/25 13:03:20;;;;;;;5.32;1.30;;;5.20;99.90;;;;;;5015008;28;20084;-75
2023/02/25 13:05:48;;;;;;;6.30;1.58;;;5.20;99.90;;;;;;5012871;28;20030;-76
2023/02/25 13:08:16;;;;;;;8.45;2.22;;;5.20;99.90;;;;;;5023860;28;20675;-75
2023/02/25 13:11:03;;;;;;;7.07;1.50;;;5.30;99.90;;;;;;5028287;28;20497;-76
2023/02/25 13:14:16;;;;;;;5.15;1.67;;;5.30;99.90;;;;;;5015923;28;20454;-75
2023/02/25 13:17:24;;;;;;;4.57;1.67;;;5.30;99.90;;;;;;5026001;28;20033;-74
2023/02/25 13:20:17;;;;;;;5.65;1.40;;;5.30;99.90;;;;;;5027969;28;20059;-75